< < Back
Terminal Aerodrome Forecast


Current Version              Previous Versions:   1  2  3  4  5  6  7  8  9  

Terminal Aerodrome Forecast

589
FTUS42 KGSP 270531
TAFHKY
TAF
KHKY 270531Z 2706/2806 00000KT P6SM FEW050 SCT250
     FM270900 00000KT 4SM BR BKN040
     FM271200 21003KT P6SM SCT040
     FM271600 22004KT P6SM BKN045 PROB30 2720/2801 4SM TSRA BKN040CB
     FM280100 25004KT P6SM -SHRA VCTS OVC040CB
     FM280400 00000KT P6SM -SHRA VCTS BKN040 OVC080CB=

Latest METAR

883
SAUS70 KWBC 270500 RRA
MTRHKY
METAR KHKY 270453Z AUTO 00000KT 10SM CLR 22/19 A3016 RMK AO2 SLP191
T02220189 403110200 $


USA.gov is the U.S. government's official web portal to all federal, state and local government web resources and services.